This is the latest recevied weather packets stored in our database for station/object LA9UTA-13. If no packets are shown the sender has not sent any weather packets the latest 10 day(s).
| Time | Temp. | Humidity | Pressure | Rain* | Wind** | Luminosity | Snow |
|---|---|---|---|---|---|---|---|
| 1778026681 | -1.67° C | 68% | 1013.4 hPa | 0 mm | - | 0 W/m² | - |
| 1778025481 | -1.11° C | 66% | 1013.4 hPa | 0 mm | - | 0 W/m² | - |
| 1778024281 | -0.56° C | 65% | 1013.3 hPa | 0 mm | - | 0 W/m² | - |
| 1778023081 | -1.67° C | 71% | 1013.4 hPa | 0 mm | - | 0 W/m² | - |
| 1778022542 | -1.67° C | 68% | 1013.4 hPa | 0 mm | - | 0 W/m² | - |
| 1778021881 | -1.67° C | 68% | 1013.4 hPa | 0 mm | - | 0 W/m² | - |
| 1778020681 | -0.56° C | 65% | 1013.3 hPa | 0 mm | - | 0 W/m² | - |
| 1778019482 | -1.11° C | 67% | 1013.4 hPa | 0 mm | - | 0 W/m² | - |
| 1778018282 | -0.56° C | 62% | 1013.3 hPa | 0 mm | - | 0 W/m² | - |
| 1778017081 | 0° C | 60% | 1012.3 hPa | 0 mm | - | 0 W/m² | - |
| 1778015881 | 0.56° C | 57% | 1012.3 hPa | 0 mm | - | 0 W/m² | - |
| 1778014681 | 0° C | 61% | 1012.3 hPa | 0 mm | - | 0 W/m² | - |
| 1778013481 | 1.67° C | 53% | 1012.2 hPa | 0 mm | - | 0 W/m² | - |
| 1778012281 | 1.67° C | 55% | 1012.2 hPa | 0 mm | - | 0 W/m² | - |
| 1778011081 | 2.22° C | 52% | 1012.1 hPa | 0 mm | - | 0 W/m² | - |
| 1778009881 | 3.33° C | 47% | 1012 hPa | 0 mm | - | 1 W/m² | - |
| 1778008681 | 4.44° C | 40% | 1011.9 hPa | 0 mm | - | 5 W/m² | - |
| 1778007482 | 6.11° C | 35% | 1010.7 hPa | 0 mm | - | 11 W/m² | - |
| 1778006282 | 7.22° C | 33% | 1010.5 hPa | 0 mm | - | 19 W/m² | - |
| 1778005373 | 8.33° C | 30% | 1010.4 hPa | 0 mm | - | 73 W/m² | - |
| 1778005083 | 7.78° C | 32% | 1010.5 hPa | 0 mm | - | 30 W/m² | - |
| 1778003882 | 8.33° C | 31% | 1010.4 hPa | 0 mm | - | 49 W/m² | - |
| 1778002682 | 8.33° C | 30% | 1010.4 hPa | 0 mm | - | 73 W/m² | - |
| 1778001482 | 8.89° C | 29% | 1010.4 hPa | 0 mm | - | 104 W/m² | - |
| 1778000282 | 8.89° C | 27% | 1010.3 hPa | 0 mm | - | 133 W/m² | - |
* Rain latest hour (hover to see other rain measurements)
** Current wind speed in m/s (hover to see current wind gust speed)